sensor_id;sensor_type;location;lat;lon;timestamp;temperature;humidity
16402;DHT22;8310;44.626;11.176;2023-05-10T00:02:10;18.70;56.50
16402;DHT22;8310;44.626;11.176;2023-05-10T00:04:38;18.70;56.50
16402;DHT22;8310;44.626;11.176;2023-05-10T00:07:05;18.70;56.60
16402;DHT22;8310;44.626;11.176;2023-05-10T00:09:33;18.70;56.60
16402;DHT22;8310;44.626;11.176;2023-05-10T00:12:01;18.70;56.60
16402;DHT22;8310;44.626;11.176;2023-05-10T00:14:28;18.70;56.80
16402;DHT22;8310;44.626;11.176;2023-05-10T00:16:55;18.70;57.30
16402;DHT22;8310;44.626;11.176;2023-05-10T00:19:24;18.70;56.70
16402;DHT22;8310;44.626;11.176;2023-05-10T00:21:51;18.70;56.90
16402;DHT22;8310;44.626;11.176;2023-05-10T00:24:19;18.60;56.60
16402;DHT22;8310;44.626;11.176;2023-05-10T00:26:45;18.60;56.60
16402;DHT22;8310;44.626;11.176;2023-05-10T00:29:13;18.60;56.70
16402;DHT22;8310;44.626;11.176;2023-05-10T00:31:40;18.60;56.70
16402;DHT22;8310;44.626;11.176;2023-05-10T00:34:07;18.60;56.70
16402;DHT22;8310;44.626;11.176;2023-05-10T00:36:36;18.60;56.70
16402;DHT22;8310;44.626;11.176;2023-05-10T00:39:04;18.60;56.80
16402;DHT22;8310;44.626;11.176;2023-05-10T00:41:31;18.60;56.80
16402;DHT22;8310;44.626;11.176;2023-05-10T00:43:59;18.60;56.80
16402;DHT22;8310;44.626;11.176;2023-05-10T00:46:27;18.60;56.80
16402;DHT22;8310;44.626;11.176;2023-05-10T00:48:54;18.60;56.80
16402;DHT22;8310;44.626;11.176;2023-05-10T00:51:22;18.50;56.70
16402;DHT22;8310;44.626;11.176;2023-05-10T00:53:51;18.50;56.70
16402;DHT22;8310;44.626;11.176;2023-05-10T00:56:18;18.50;56.70
16402;DHT22;8310;44.626;11.176;2023-05-10T00:58:48;18.50;56.70
16402;DHT22;8310;44.626;11.176;2023-05-10T01:01:16;18.50;56.70
16402;DHT22;8310;44.626;11.176;2023-05-10T01:03:43;18.50;56.80
16402;DHT22;8310;44.626;11.176;2023-05-10T01:06:11;18.50;56.90
16402;DHT22;8310;44.626;11.176;2023-05-10T01:08:43;18.50;57.00
16402;DHT22;8310;44.626;11.176;2023-05-10T01:11:12;18.50;56.80
16402;DHT22;8310;44.626;11.176;2023-05-10T01:13:40;18.50;56.90
16402;DHT22;8310;44.626;11.176;2023-05-10T01:16:08;18.50;56.80
16402;DHT22;8310;44.626;11.176;2023-05-10T01:18:36;18.40;56.80
16402;DHT22;8310;44.626;11.176;2023-05-10T01:21:06;18.40;57.20
16402;DHT22;8310;44.626;11.176;2023-05-10T01:23:41;18.40;57.00
16402;DHT22;8310;44.626;11.176;2023-05-10T01:29:24;18.40;57.00
16402;DHT22;8310;44.626;11.176;2023-05-10T01:34:43;18.40;57.00
16402;DHT22;8310;44.626;11.176;2023-05-10T01:37:15;18.40;57.00
16402;DHT22;8310;44.626;11.176;2023-05-10T01:39:44;18.40;57.00
16402;DHT22;8310;44.626;11.176;2023-05-10T01:42:14;18.40;57.00
16402;DHT22;8310;44.626;11.176;2023-05-10T01:44:46;18.40;57.00
16402;DHT22;8310;44.626;11.176;2023-05-10T01:47:17;18.30;57.00
16402;DHT22;8310;44.626;11.176;2023-05-10T01:49:49;18.40;57.00
16402;DHT22;8310;44.626;11.176;2023-05-10T01:52:18;18.40;57.00
16402;DHT22;8310;44.626;11.176;2023-05-10T01:54:48;18.30;57.00
16402;DHT22;8310;44.626;11.176;2023-05-10T01:57:16;18.30;57.10
16402;DHT22;8310;44.626;11.176;2023-05-10T01:59:45;18.30;57.10
16402;DHT22;8310;44.626;11.176;2023-05-10T02:02:14;18.30;57.10
16402;DHT22;8310;44.626;11.176;2023-05-10T02:04:42;18.30;57.10
16402;DHT22;8310;44.626;11.176;2023-05-10T02:07:12;18.30;57.00
16402;DHT22;8310;44.626;11.176;2023-05-10T02:09:40;18.30;57.10
16402;DHT22;8310;44.626;11.176;2023-05-10T02:12:07;18.30;57.10
16402;DHT22;8310;44.626;11.176;2023-05-10T02:14:35;18.20;57.00
16402;DHT22;8310;44.626;11.176;2023-05-10T02:17:04;18.20;57.00
16402;DHT22;8310;44.626;11.176;2023-05-10T02:19:32;18.20;57.00
16402;DHT22;8310;44.626;11.176;2023-05-10T02:21:59;18.20;57.10
16402;DHT22;8310;44.626;11.176;2023-05-10T02:24:29;18.20;57.10
16402;DHT22;8310;44.626;11.176;2023-05-10T02:26:56;18.10;57.10
16402;DHT22;8310;44.626;11.176;2023-05-10T02:29:24;18.10;57.00
16402;DHT22;8310;44.626;11.176;2023-05-10T02:31:54;18.10;57.10
16402;DHT22;8310;44.626;11.176;2023-05-10T02:34:22;18.10;57.10
16402;DHT22;8310;44.626;11.176;2023-05-10T02:36:49;18.10;57.20
16402;DHT22;8310;44.626;11.176;2023-05-10T02:39:17;18.00;57.70
16402;DHT22;8310;44.626;11.176;2023-05-10T02:41:47;18.00;57.10
16402;DHT22;8310;44.626;11.176;2023-05-10T02:44:15;18.00;57.10
16402;DHT22;8310;44.626;11.176;2023-05-10T02:46:44;18.00;57.10
16402;DHT22;8310;44.626;11.176;2023-05-10T02:49:12;18.00;57.10
16402;DHT22;8310;44.626;11.176;2023-05-10T02:51:40;17.90;57.10
16402;DHT22;8310;44.626;11.176;2023-05-10T02:54:10;17.90;57.10
16402;DHT22;8310;44.626;11.176;2023-05-10T02:56:40;17.90;57.10
16402;DHT22;8310;44.626;11.176;2023-05-10T02:59:09;17.90;57.10
16402;DHT22;8310;44.626;11.176;2023-05-10T03:01:37;17.90;57.20
16402;DHT22;8310;44.626;11.176;2023-05-10T03:04:03;17.90;57.20
16402;DHT22;8310;44.626;11.176;2023-05-10T03:06:31;17.80;57.20
16402;DHT22;8310;44.626;11.176;2023-05-10T03:08:59;17.80;57.20
16402;DHT22;8310;44.626;11.176;2023-05-10T03:11:32;17.80;57.10
16402;DHT22;8310;44.626;11.176;2023-05-10T03:14:10;17.80;57.30
16402;DHT22;8310;44.626;11.176;2023-05-10T03:16:41;17.80;57.30
16402;DHT22;8310;44.626;11.176;2023-05-10T03:19:12;17.80;57.30
16402;DHT22;8310;44.626;11.176;2023-05-10T03:21:44;17.80;57.30
16402;DHT22;8310;44.626;11.176;2023-05-10T03:24:14;17.80;57.30
16402;DHT22;8310;44.626;11.176;2023-05-10T03:26:43;17.80;57.30
16402;DHT22;8310;44.626;11.176;2023-05-10T03:29:13;17.80;57.30
16402;DHT22;8310;44.626;11.176;2023-05-10T03:31:40;17.80;57.30
16402;DHT22;8310;44.626;11.176;2023-05-10T03:34:08;17.80;57.40
16402;DHT22;8310;44.626;11.176;2023-05-10T03:36:35;17.80;57.40
16402;DHT22;8310;44.626;11.176;2023-05-10T03:39:03;17.80;57.90
16402;DHT22;8310;44.626;11.176;2023-05-10T03:41:30;17.70;57.40
16402;DHT22;8310;44.626;11.176;2023-05-10T03:44:00;17.70;57.90
16402;DHT22;8310;44.626;11.176;2023-05-10T03:46:28;17.70;57.30
16402;DHT22;8310;44.626;11.176;2023-05-10T03:48:56;17.70;57.30
16402;DHT22;8310;44.626;11.176;2023-05-10T03:51:23;17.70;57.30
16402;DHT22;8310;44.626;11.176;2023-05-10T03:53:53;17.70;57.40
16402;DHT22;8310;44.626;11.176;2023-05-10T03:56:20;17.60;57.30
16402;DHT22;8310;44.626;11.176;2023-05-10T03:58:47;17.60;57.40
16402;DHT22;8310;44.626;11.176;2023-05-10T04:01:15;17.60;57.40
16402;DHT22;8310;44.626;11.176;2023-05-10T04:03:44;17.60;57.50
16402;DHT22;8310;44.626;11.176;2023-05-10T04:06:11;17.60;57.40
16402;DHT22;8310;44.626;11.176;2023-05-10T04:08:38;17.60;57.40
16402;DHT22;8310;44.626;11.176;2023-05-10T04:11:06;17.60;57.40
16402;DHT22;8310;44.626;11.176;2023-05-10T04:13:33;17.60;57.40
16402;DHT22;8310;44.626;11.176;2023-05-10T04:16:01;17.60;57.40
16402;DHT22;8310;44.626;11.176;2023-05-10T04:18:28;17.60;57.40
16402;DHT22;8310;44.626;11.176;2023-05-10T04:20:57;17.50;57.30
16402;DHT22;8310;44.626;11.176;2023-05-10T04:23:25;17.50;57.40
16402;DHT22;8310;44.626;11.176;2023-05-10T04:25:52;17.50;57.90
16402;DHT22;8310;44.626;11.176;2023-05-10T04:28:19;17.50;57.40
16402;DHT22;8310;44.626;11.176;2023-05-10T04:30:47;17.50;57.40
16402;DHT22;8310;44.626;11.176;2023-05-10T04:33:17;17.40;57.30
16402;DHT22;8310;44.626;11.176;2023-05-10T04:35:44;17.40;57.40
16402;DHT22;8310;44.626;11.176;2023-05-10T04:38:13;17.40;57.40
16402;DHT22;8310;44.626;11.176;2023-05-10T04:40:40;17.40;57.40
16402;DHT22;8310;44.626;11.176;2023-05-10T04:43:07;17.40;57.50
16402;DHT22;8310;44.626;11.176;2023-05-10T04:45:35;17.40;57.50
16402;DHT22;8310;44.626;11.176;2023-05-10T04:48:02;17.30;57.50
16402;DHT22;8310;44.626;11.176;2023-05-10T04:50:29;17.30;57.40
16402;DHT22;8310;44.626;11.176;2023-05-10T04:52:56;17.30;57.50
16402;DHT22;8310;44.626;11.176;2023-05-10T04:55:25;17.30;57.50
16402;DHT22;8310;44.626;11.176;2023-05-10T04:57:53;17.30;57.50
16402;DHT22;8310;44.626;11.176;2023-05-10T05:00:22;17.30;57.50
16402;DHT22;8310;44.626;11.176;2023-05-10T05:02:49;17.30;57.60
16402;DHT22;8310;44.626;11.176;2023-05-10T05:05:16;17.30;57.50
16402;DHT22;8310;44.626;11.176;2023-05-10T05:07:44;17.30;57.60
16402;DHT22;8310;44.626;11.176;2023-05-10T05:10:12;17.20;57.50
16402;DHT22;8310;44.626;11.176;2023-05-10T05:12:42;17.20;57.50
16402;DHT22;8310;44.626;11.176;2023-05-10T05:15:09;17.20;57.50
16402;DHT22;8310;44.626;11.176;2023-05-10T05:17:36;17.20;57.60
16402;DHT22;8310;44.626;11.176;2023-05-10T05:20:04;17.20;58.20
16402;DHT22;8310;44.626;11.176;2023-05-10T05:22:32;17.20;57.60
16402;DHT22;8310;44.626;11.176;2023-05-10T05:24:59;17.20;57.50
16402;DHT22;8310;44.626;11.176;2023-05-10T05:27:27;17.20;57.60
16402;DHT22;8310;44.626;11.176;2023-05-10T05:29:56;17.20;57.60
16402;DHT22;8310;44.626;11.176;2023-05-10T05:32:24;17.20;57.60
16402;DHT22;8310;44.626;11.176;2023-05-10T05:34:52;17.20;57.80
16402;DHT22;8310;44.626;11.176;2023-05-10T05:37:28;17.20;57.60
16402;DHT22;8310;44.626;11.176;2023-05-10T05:39:55;17.20;57.60
16402;DHT22;8310;44.626;11.176;2023-05-10T05:42:24;17.10;57.60
16402;DHT22;8310;44.626;11.176;2023-05-10T05:44:51;17.10;57.60
16402;DHT22;8310;44.626;11.176;2023-05-10T05:47:20;17.10;57.60
16402;DHT22;8310;44.626;11.176;2023-05-10T05:49:48;17.10;57.70
16402;DHT22;8310;44.626;11.176;2023-05-10T05:52:16;17.10;57.70
16402;DHT22;8310;44.626;11.176;2023-05-10T05:54:46;17.10;57.70
16402;DHT22;8310;44.626;11.176;2023-05-10T05:57:13;17.10;57.70
16402;DHT22;8310;44.626;11.176;2023-05-10T05:59:40;17.10;57.80
16402;DHT22;8310;44.626;11.176;2023-05-10T06:02:09;17.10;57.90
16402;DHT22;8310;44.626;11.176;2023-05-10T06:04:38;17.10;57.80
16402;DHT22;8310;44.626;11.176;2023-05-10T06:07:06;17.10;57.80
16402;DHT22;8310;44.626;11.176;2023-05-10T06:09:33;17.10;57.80
16402;DHT22;8310;44.626;11.176;2023-05-10T06:12:01;17.10;57.90
16402;DHT22;8310;44.626;11.176;2023-05-10T06:14:28;17.10;57.80
16402;DHT22;8310;44.626;11.176;2023-05-10T06:16:55;17.10;57.80
16402;DHT22;8310;44.626;11.176;2023-05-10T06:19:22;17.10;57.80
16402;DHT22;8310;44.626;11.176;2023-05-10T06:21:51;17.10;57.90
16402;DHT22;8310;44.626;11.176;2023-05-10T06:24:18;17.10;57.90
16402;DHT22;8310;44.626;11.176;2023-05-10T06:26:45;17.10;57.90
16402;DHT22;8310;44.626;11.176;2023-05-10T06:29:12;17.10;57.90
16402;DHT22;8310;44.626;11.176;2023-05-10T06:31:40;17.00;57.80
16402;DHT22;8310;44.626;11.176;2023-05-10T06:34:07;17.10;58.00
16402;DHT22;8310;44.626;11.176;2023-05-10T06:36:34;17.10;58.00
16402;DHT22;8310;44.626;11.176;2023-05-10T06:39:11;17.10;58.00
16402;DHT22;8310;44.626;11.176;2023-05-10T06:41:39;17.10;58.00
16402;DHT22;8310;44.626;11.176;2023-05-10T06:44:07;17.10;58.00
16402;DHT22;8310;44.626;11.176;2023-05-10T06:46:34;17.10;58.00
16402;DHT22;8310;44.626;11.176;2023-05-10T06:49:01;17.10;58.00
16402;DHT22;8310;44.626;11.176;2023-05-10T06:51:28;17.10;58.00
16402;DHT22;8310;44.626;11.176;2023-05-10T06:53:55;17.10;58.00
16402;DHT22;8310;44.626;11.176;2023-05-10T06:56:24;17.10;58.00
16402;DHT22;8310;44.626;11.176;2023-05-10T06:58:51;17.10;58.00
16402;DHT22;8310;44.626;11.176;2023-05-10T07:01:18;17.10;58.00
16402;DHT22;8310;44.626;11.176;2023-05-10T07:03:46;17.10;58.00
16402;DHT22;8310;44.626;11.176;2023-05-10T07:06:13;17.10;58.00
16402;DHT22;8310;44.626;11.176;2023-05-10T07:08:40;17.10;58.00
16402;DHT22;8310;44.626;11.176;2023-05-10T07:11:07;17.10;58.00
16402;DHT22;8310;44.626;11.176;2023-05-10T07:13:37;17.10;58.00
16402;DHT22;8310;44.626;11.176;2023-05-10T07:16:06;17.10;58.00
16402;DHT22;8310;44.626;11.176;2023-05-10T07:18:34;17.00;58.00
16402;DHT22;8310;44.626;11.176;2023-05-10T07:21:01;17.00;58.00
16402;DHT22;8310;44.626;11.176;2023-05-10T07:23:28;17.00;58.00
16402;DHT22;8310;44.626;11.176;2023-05-10T07:25:55;17.00;58.10
16402;DHT22;8310;44.626;11.176;2023-05-10T07:28:23;17.00;58.00
16402;DHT22;8310;44.626;11.176;2023-05-10T07:30:52;17.00;58.10
16402;DHT22;8310;44.626;11.176;2023-05-10T07:33:19;17.00;58.10
16402;DHT22;8310;44.626;11.176;2023-05-10T07:35:46;17.00;58.10
16402;DHT22;8310;44.626;11.176;2023-05-10T07:38:13;17.00;58.10
16402;DHT22;8310;44.626;11.176;2023-05-10T07:40:41;17.00;58.10
16402;DHT22;8310;44.626;11.176;2023-05-10T07:43:09;17.00;58.20
16402;DHT22;8310;44.626;11.176;2023-05-10T07:45:36;17.00;58.20
16402;DHT22;8310;44.626;11.176;2023-05-10T07:48:05;17.00;58.20
16402;DHT22;8310;44.626;11.176;2023-05-10T07:50:32;17.00;58.20
16402;DHT22;8310;44.626;11.176;2023-05-10T07:53:00;17.00;58.20
16402;DHT22;8310;44.626;11.176;2023-05-10T07:55:29;17.00;58.20
16402;DHT22;8310;44.626;11.176;2023-05-10T07:57:57;17.00;58.20
16402;DHT22;8310;44.626;11.176;2023-05-10T08:00:26;17.00;58.30
16402;DHT22;8310;44.626;11.176;2023-05-10T08:02:53;17.00;58.40
16402;DHT22;8310;44.626;11.176;2023-05-10T08:05:22;17.10;58.40
16402;DHT22;8310;44.626;11.176;2023-05-10T08:07:49;17.10;58.60
16402;DHT22;8310;44.626;11.176;2023-05-10T08:10:17;17.10;58.40
16402;DHT22;8310;44.626;11.176;2023-05-10T08:12:43;17.10;58.40
16402;DHT22;8310;44.626;11.176;2023-05-10T08:15:11;17.10;58.40
16402;DHT22;8310;44.626;11.176;2023-05-10T08:17:38;17.10;58.40
16402;DHT22;8310;44.626;11.176;2023-05-10T08:20:06;17.10;58.40
16402;DHT22;8310;44.626;11.176;2023-05-10T08:22:34;17.10;58.50
16402;DHT22;8310;44.626;11.176;2023-05-10T08:25:02;17.10;58.40
16402;DHT22;8310;44.626;11.176;2023-05-10T08:27:29;17.10;58.40
16402;DHT22;8310;44.626;11.176;2023-05-10T08:29:57;17.10;58.40
16402;DHT22;8310;44.626;11.176;2023-05-10T08:32:25;17.10;58.40
16402;DHT22;8310;44.626;11.176;2023-05-10T08:34:53;17.10;58.40
16402;DHT22;8310;44.626;11.176;2023-05-10T08:37:20;17.10;58.40
16402;DHT22;8310;44.626;11.176;2023-05-10T08:39:50;17.10;58.50
16402;DHT22;8310;44.626;11.176;2023-05-10T08:42:19;17.00;58.40
16402;DHT22;8310;44.626;11.176;2023-05-10T08:44:49;17.00;58.30
16402;DHT22;8310;44.626;11.176;2023-05-10T08:47:17;17.00;58.30
16402;DHT22;8310;44.626;11.176;2023-05-10T08:49:45;17.00;58.40
16402;DHT22;8310;44.626;11.176;2023-05-10T08:52:13;17.00;58.40
16402;DHT22;8310;44.626;11.176;2023-05-10T08:54:41;17.00;58.50
16402;DHT22;8310;44.626;11.176;2023-05-10T08:57:10;17.00;58.40
16402;DHT22;8310;44.626;11.176;2023-05-10T08:59:38;16.90;58.30
16402;DHT22;8310;44.626;11.176;2023-05-10T09:02:05;16.90;58.30
16402;DHT22;8310;44.626;11.176;2023-05-10T09:04:33;16.90;58.30
16402;DHT22;8310;44.626;11.176;2023-05-10T09:07:01;16.90;58.30
16402;DHT22;8310;44.626;11.176;2023-05-10T09:09:28;16.90;58.90
16402;DHT22;8310;44.626;11.176;2023-05-10T09:11:55;16.80;58.30
16402;DHT22;8310;44.626;11.176;2023-05-10T09:14:24;16.80;58.40
16402;DHT22;8310;44.626;11.176;2023-05-10T09:16:52;16.80;58.40
16402;DHT22;8310;44.626;11.176;2023-05-10T09:19:19;16.80;58.40
16402;DHT22;8310;44.626;11.176;2023-05-10T09:21:46;16.80;58.40
16402;DHT22;8310;44.626;11.176;2023-05-10T09:24:14;16.80;58.40
16402;DHT22;8310;44.626;11.176;2023-05-10T09:26:45;16.80;58.50
16402;DHT22;8310;44.626;11.176;2023-05-10T09:29:13;16.80;58.50
16402;DHT22;8310;44.626;11.176;2023-05-10T09:31:45;16.80;58.50
16402;DHT22;8310;44.626;11.176;2023-05-10T09:34:16;16.80;58.60
16402;DHT22;8310;44.626;11.176;2023-05-10T09:36:54;16.80;58.60
16402;DHT22;8310;44.626;11.176;2023-05-10T09:39:28;16.80;58.50
16402;DHT22;8310;44.626;11.176;2023-05-10T09:41:57;16.80;58.60
16402;DHT22;8310;44.626;11.176;2023-05-10T09:44:25;16.80;58.60
16402;DHT22;8310;44.626;11.176;2023-05-10T09:46:54;16.80;58.50
16402;DHT22;8310;44.626;11.176;2023-05-10T09:49:21;16.80;58.60
16402;DHT22;8310;44.626;11.176;2023-05-10T09:51:57;16.70;58.50
16402;DHT22;8310;44.626;11.176;2023-05-10T09:54:26;16.70;58.50
16402;DHT22;8310;44.626;11.176;2023-05-10T09:56:53;16.70;58.50
16402;DHT22;8310;44.626;11.176;2023-05-10T09:59:20;16.70;58.50
16402;DHT22;8310;44.626;11.176;2023-05-10T10:01:51;16.70;58.60
16402;DHT22;8310;44.626;11.176;2023-05-10T10:04:20;16.70;58.60
16402;DHT22;8310;44.626;11.176;2023-05-10T10:06:57;16.70;58.70
16402;DHT22;8310;44.626;11.176;2023-05-10T10:09:25;16.80;58.80
16402;DHT22;8310;44.626;11.176;2023-05-10T10:11:53;16.80;58.70
16402;DHT22;8310;44.626;11.176;2023-05-10T10:14:21;16.80;58.70
16402;DHT22;8310;44.626;11.176;2023-05-10T10:16:49;16.80;59.10
16402;DHT22;8310;44.626;11.176;2023-05-10T10:19:16;16.80;58.90
16402;DHT22;8310;44.626;11.176;2023-05-10T10:21:45;16.80;58.80
16402;DHT22;8310;44.626;11.176;2023-05-10T10:24:18;16.70;59.30
16402;DHT22;8310;44.626;11.176;2023-05-10T10:26:46;16.70;58.70
16402;DHT22;8310;44.626;11.176;2023-05-10T10:29:19;16.70;58.60
16402;DHT22;8310;44.626;11.176;2023-05-10T10:31:50;16.70;58.60
16402;DHT22;8310;44.626;11.176;2023-05-10T10:34:22;16.70;58.80
16402;DHT22;8310;44.626;11.176;2023-05-10T10:36:53;16.70;58.80
16402;DHT22;8310;44.626;11.176;2023-05-10T10:39:21;16.60;59.20
16402;DHT22;8310;44.626;11.176;2023-05-10T10:41:49;16.60;58.70
16402;DHT22;8310;44.626;11.176;2023-05-10T10:49:50;16.50;60.10
16402;DHT22;8310;44.626;11.176;2023-05-10T10:52:23;16.40;59.30
16402;DHT22;8310;44.626;11.176;2023-05-10T10:54:56;16.30;59.60
16402;DHT22;8310;44.626;11.176;2023-05-10T10:57:25;16.20;59.80
16402;DHT22;8310;44.626;11.176;2023-05-10T10:59:58;16.20;60.10
16402;DHT22;8310;44.626;11.176;2023-05-10T11:02:44;16.10;59.80
16402;DHT22;8310;44.626;11.176;2023-05-10T11:05:23;16.00;59.40
16402;DHT22;8310;44.626;11.176;2023-05-10T11:07:53;16.00;59.80
16402;DHT22;8310;44.626;11.176;2023-05-10T11:10:21;15.90;59.60
16402;DHT22;8310;44.626;11.176;2023-05-10T11:12:52;15.90;59.60
16402;DHT22;8310;44.626;11.176;2023-05-10T11:15:19;15.90;60.50
16402;DHT22;8310;44.626;11.176;2023-05-10T11:17:47;15.80;59.40
16402;DHT22;8310;44.626;11.176;2023-05-10T11:20:17;15.80;59.40
16402;DHT22;8310;44.626;11.176;2023-05-10T11:22:51;15.80;59.30
16402;DHT22;8310;44.626;11.176;2023-05-10T11:25:23;15.80;59.80
16402;DHT22;8310;44.626;11.176;2023-05-10T11:27:53;15.80;59.50
16402;DHT22;8310;44.626;11.176;2023-05-10T11:30:20;15.80;59.50
16402;DHT22;8310;44.626;11.176;2023-05-10T11:32:48;15.80;59.20
16402;DHT22;8310;44.626;11.176;2023-05-10T11:35:16;15.80;59.10
16402;DHT22;8310;44.626;11.176;2023-05-10T11:37:44;15.70;59.00
16402;DHT22;8310;44.626;11.176;2023-05-10T11:40:15;15.80;59.30
16402;DHT22;8310;44.626;11.176;2023-05-10T11:42:43;15.70;59.00
16402;DHT22;8310;44.626;11.176;2023-05-10T11:45:12;15.70;59.00
16402;DHT22;8310;44.626;11.176;2023-05-10T11:47:39;15.70;59.00
16402;DHT22;8310;44.626;11.176;2023-05-10T11:50:08;15.70;59.00
16402;DHT22;8310;44.626;11.176;2023-05-10T11:52:44;15.70;59.10
16402;DHT22;8310;44.626;11.176;2023-05-10T11:55:12;15.70;59.00
16402;DHT22;8310;44.626;11.176;2023-05-10T11:57:39;15.70;59.20
16402;DHT22;8310;44.626;11.176;2023-05-10T12:00:10;15.70;59.10
16402;DHT22;8310;44.626;11.176;2023-05-10T12:02:39;15.70;59.00
16402;DHT22;8310;44.626;11.176;2023-05-10T12:05:06;15.70;59.00
16402;DHT22;8310;44.626;11.176;2023-05-10T12:07:34;15.70;59.40
16402;DHT22;8310;44.626;11.176;2023-05-10T12:10:05;15.60;59.10
16402;DHT22;8310;44.626;11.176;2023-05-10T12:12:39;15.60;59.20
16402;DHT22;8310;44.626;11.176;2023-05-10T12:15:12;15.60;59.10
16402;DHT22;8310;44.626;11.176;2023-05-10T12:17:44;15.60;59.10
16402;DHT22;8310;44.626;11.176;2023-05-10T12:20:15;15.60;59.00
16402;DHT22;8310;44.626;11.176;2023-05-10T12:22:46;15.60;59.10
16402;DHT22;8310;44.626;11.176;2023-05-10T12:25:14;15.60;59.00
16402;DHT22;8310;44.626;11.176;2023-05-10T12:27:47;15.60;59.10
16402;DHT22;8310;44.626;11.176;2023-05-10T12:30:19;15.60;59.10
16402;DHT22;8310;44.626;11.176;2023-05-10T12:32:47;15.60;59.20
16402;DHT22;8310;44.626;11.176;2023-05-10T12:35:14;15.70;59.20
16402;DHT22;8310;44.626;11.176;2023-05-10T12:37:42;15.70;59.20
16402;DHT22;8310;44.626;11.176;2023-05-10T12:40:10;15.70;59.20
16402;DHT22;8310;44.626;11.176;2023-05-10T12:42:39;15.70;59.30
16402;DHT22;8310;44.626;11.176;2023-05-10T12:45:08;15.70;59.20
16402;DHT22;8310;44.626;11.176;2023-05-10T12:47:37;15.70;59.20
16402;DHT22;8310;44.626;11.176;2023-05-10T12:50:04;15.70;59.20
16402;DHT22;8310;44.626;11.176;2023-05-10T12:52:33;15.70;59.30
16402;DHT22;8310;44.626;11.176;2023-05-10T12:55:00;15.70;59.40
16402;DHT22;8310;44.626;11.176;2023-05-10T12:57:28;15.70;59.40
16402;DHT22;8310;44.626;11.176;2023-05-10T12:59:56;15.70;59.40
16402;DHT22;8310;44.626;11.176;2023-05-10T13:02:22;15.70;59.40
16402;DHT22;8310;44.626;11.176;2023-05-10T13:04:52;15.70;59.30
16402;DHT22;8310;44.626;11.176;2023-05-10T13:07:19;15.70;59.40
16402;DHT22;8310;44.626;11.176;2023-05-10T13:09:47;15.70;59.70
16402;DHT22;8310;44.626;11.176;2023-05-10T13:12:14;15.70;59.30
16402;DHT22;8310;44.626;11.176;2023-05-10T13:14:41;15.70;59.70
16402;DHT22;8310;44.626;11.176;2023-05-10T13:17:09;15.70;60.50
16402;DHT22;8310;44.626;11.176;2023-05-10T13:19:36;15.70;60.70
16402;DHT22;8310;44.626;11.176;2023-05-10T13:22:05;15.70;59.90
16402;DHT22;8310;44.626;11.176;2023-05-10T13:24:32;15.80;59.70
16402;DHT22;8310;44.626;11.176;2023-05-10T13:27:03;15.80;59.70
16402;DHT22;8310;44.626;11.176;2023-05-10T13:29:30;15.80;59.70
16402;DHT22;8310;44.626;11.176;2023-05-10T13:31:58;15.80;59.70
16402;DHT22;8310;44.626;11.176;2023-05-10T13:34:26;15.80;59.60
16402;DHT22;8310;44.626;11.176;2023-05-10T13:36:53;15.90;59.70
16402;DHT22;8310;44.626;11.176;2023-05-10T13:39:23;15.90;59.70
16402;DHT22;8310;44.626;11.176;2023-05-10T13:41:49;15.90;59.90
16402;DHT22;8310;44.626;11.176;2023-05-10T13:44:17;15.90;59.80
16402;DHT22;8310;44.626;11.176;2023-05-10T13:46:45;15.90;59.90
16402;DHT22;8310;44.626;11.176;2023-05-10T13:49:12;15.90;60.00
16402;DHT22;8310;44.626;11.176;2023-05-10T13:51:39;16.00;59.90
16402;DHT22;8310;44.626;11.176;2023-05-10T13:54:07;16.00;59.90
16402;DHT22;8310;44.626;11.176;2023-05-10T13:56:36;16.00;59.90
16402;DHT22;8310;44.626;11.176;2023-05-10T13:59:04;16.00;59.90
16402;DHT22;8310;44.626;11.176;2023-05-10T14:01:31;16.00;59.90
16402;DHT22;8310;44.626;11.176;2023-05-10T14:03:59;16.00;59.80
16402;DHT22;8310;44.626;11.176;2023-05-10T14:06:26;16.00;59.70
16402;DHT22;8310;44.626;11.176;2023-05-10T14:08:54;16.00;59.80
16402;DHT22;8310;44.626;11.176;2023-05-10T14:11:21;16.00;59.70
16402;DHT22;8310;44.626;11.176;2023-05-10T14:13:50;16.00;59.70
16402;DHT22;8310;44.626;11.176;2023-05-10T14:16:17;16.00;60.10
16402;DHT22;8310;44.626;11.176;2023-05-10T14:18:45;16.00;59.90
16402;DHT22;8310;44.626;11.176;2023-05-10T14:21:12;16.00;60.10
16402;DHT22;8310;44.626;11.176;2023-05-10T14:23:40;16.00;59.90
16402;DHT22;8310;44.626;11.176;2023-05-10T14:26:07;16.00;59.90
16402;DHT22;8310;44.626;11.176;2023-05-10T14:28:35;15.90;60.40
16402;DHT22;8310;44.626;11.176;2023-05-10T14:31:04;15.90;60.40
16402;DHT22;8310;44.626;11.176;2023-05-10T14:33:31;15.90;60.50
16402;DHT22;8310;44.626;11.176;2023-05-10T14:35:59;16.00;60.20
16402;DHT22;8310;44.626;11.176;2023-05-10T14:38:26;15.90;59.90
16402;DHT22;8310;44.626;11.176;2023-05-10T14:40:54;16.00;60.00
16402;DHT22;8310;44.626;11.176;2023-05-10T14:43:21;15.90;60.00
16402;DHT22;8310;44.626;11.176;2023-05-10T14:45:48;16.00;60.10
16402;DHT22;8310;44.626;11.176;2023-05-10T14:48:17;16.00;60.20
16402;DHT22;8310;44.626;11.176;2023-05-10T14:50:44;16.00;60.30
16402;DHT22;8310;44.626;11.176;2023-05-10T14:53:11;16.00;60.10
16402;DHT22;8310;44.626;11.176;2023-05-10T14:55:38;16.00;60.00
16402;DHT22;8310;44.626;11.176;2023-05-10T14:58:05;16.00;60.10
16402;DHT22;8310;44.626;11.176;2023-05-10T15:00:33;16.00;63.20
16402;DHT22;8310;44.626;11.176;2023-05-10T15:03:00;16.00;61.90
16402;DHT22;8310;44.626;11.176;2023-05-10T15:05:29;16.00;64.60
16402;DHT22;8310;44.626;11.176;2023-05-10T15:07:57;16.00;61.50
16402;DHT22;8310;44.626;11.176;2023-05-10T15:10:25;16.00;61.40
16402;DHT22;8310;44.626;11.176;2023-05-10T15:12:52;16.00;62.10
16402;DHT22;8310;44.626;11.176;2023-05-10T15:15:19;15.90;62.80
16402;DHT22;8310;44.626;11.176;2023-05-10T15:17:47;15.90;62.80
16402;DHT22;8310;44.626;11.176;2023-05-10T15:20:14;15.90;62.60
16402;DHT22;8310;44.626;11.176;2023-05-10T15:22:43;15.90;61.90
16402;DHT22;8310;44.626;11.176;2023-05-10T15:25:11;15.90;61.30
16402;DHT22;8310;44.626;11.176;2023-05-10T15:27:38;15.90;61.40
16402;DHT22;8310;44.626;11.176;2023-05-10T15:30:06;16.00;61.20
16402;DHT22;8310;44.626;11.176;2023-05-10T15:32:34;16.00;61.00
16402;DHT22;8310;44.626;11.176;2023-05-10T15:35:02;16.00;61.40
16402;DHT22;8310;44.626;11.176;2023-05-10T15:37:32;16.00;62.20
16402;DHT22;8310;44.626;11.176;2023-05-10T15:40:02;16.00;61.30
16402;DHT22;8310;44.626;11.176;2023-05-10T15:42:30;16.00;61.00
16402;DHT22;8310;44.626;11.176;2023-05-10T15:44:57;16.00;61.00
16402;DHT22;8310;44.626;11.176;2023-05-10T15:47:25;16.00;61.00
16402;DHT22;8310;44.626;11.176;2023-05-10T15:49:52;16.10;62.20